createdAt,value
2018-12-06T05:06:23.613Z,18.80
2018-12-06T05:08:49.828Z,18.80
2018-12-06T05:11:16.819Z,18.80
2018-12-06T05:13:43.018Z,18.80
2018-12-06T05:16:09.206Z,18.80
2018-12-06T05:18:35.404Z,18.90
2018-12-06T05:21:01.620Z,18.90
2018-12-06T05:23:27.849Z,18.90
2018-12-06T05:25:54.066Z,18.90
2018-12-06T05:28:20.337Z,18.90
2018-12-06T05:30:46.558Z,18.90
2018-12-06T05:33:12.750Z,19.00
2018-12-06T05:35:39.603Z,19.00
2018-12-06T05:38:05.806Z,19.00
2018-12-06T05:40:32.024Z,19.00
2018-12-06T05:42:58.254Z,19.00
2018-12-06T05:45:24.460Z,19.00
2018-12-06T05:47:50.657Z,19.00
2018-12-06T05:50:16.874Z,19.00
2018-12-06T05:52:43.982Z,19.00
2018-12-06T05:55:10.255Z,19.00
2018-12-06T05:57:37.055Z,19.00
2018-12-06T06:00:03.288Z,19.00
2018-12-06T06:02:29.508Z,18.90
2018-12-06T06:04:55.725Z,18.90
2018-12-06T06:07:21.929Z,18.90
2018-12-06T06:09:48.161Z,18.90
2018-12-06T06:12:14.400Z,18.90
2018-12-06T06:14:40.705Z,18.90
2018-12-06T06:17:06.897Z,18.90
2018-12-06T06:19:33.151Z,18.90
2018-12-06T06:21:59.349Z,18.90
2018-12-06T06:24:25.561Z,18.80
2018-12-06T06:26:51.757Z,18.80
2018-12-06T06:29:17.975Z,18.80
2018-12-06T06:31:44.806Z,18.80
2018-12-06T06:34:11.132Z,18.80
2018-12-06T06:36:38.161Z,18.80
2018-12-06T06:39:04.395Z,18.80
2018-12-06T06:41:30.673Z,18.80
2018-12-06T06:43:56.940Z,18.80
2018-12-06T06:46:23.133Z,18.90
2018-12-06T06:48:49.385Z,18.90
2018-12-06T06:51:15.582Z,18.90
2018-12-06T06:53:41.790Z,18.90
2018-12-06T06:56:08.653Z,18.60
2018-12-06T06:58:34.856Z,18.50
2018-12-06T07:01:01.056Z,18.30
2018-12-06T07:03:27.407Z,18.30
2018-12-06T07:05:53.786Z,18.10
2018-12-06T07:08:20.000Z,18.00
2018-12-06T07:10:47.303Z,18.10
2018-12-06T07:13:14.026Z,18.00
2018-12-06T07:15:40.228Z,17.70
2018-12-06T07:18:06.455Z,18.00
2018-12-06T07:20:32.707Z,18.30
2018-12-06T07:22:58.929Z,18.50
2018-12-06T07:25:25.303Z,18.70
2018-12-06T07:27:51.536Z,18.80
2018-12-06T07:30:17.875Z,19.00
2018-12-06T07:32:44.085Z,19.20
2018-12-06T07:35:10.326Z,19.30
2018-12-06T07:37:36.516Z,19.40
2018-12-06T07:40:03.632Z,19.60
2018-12-06T07:42:29.818Z,19.70
2018-12-06T07:44:56.528Z,19.80
2018-12-06T07:47:22.879Z,19.90
2018-12-06T07:49:49.094Z,19.90
2018-12-06T07:52:15.300Z,19.90
2018-12-06T07:54:41.517Z,19.90
2018-12-06T07:57:07.734Z,20.00
2018-12-06T07:59:34.711Z,20.10
2018-12-06T08:02:00.941Z,20.10
2018-12-06T08:04:27.208Z,20.10
2018-12-06T08:06:53.416Z,20.10
2018-12-06T08:09:19.619Z,20.20
2018-12-06T08:11:45.914Z,20.20
2018-12-06T08:14:12.131Z,20.20
2018-12-06T08:16:38.620Z,20.20
2018-12-06T08:19:04.921Z,20.20
2018-12-06T08:21:31.117Z,20.30
2018-12-06T08:23:57.492Z,20.30
2018-12-06T08:26:23.934Z,20.30
2018-12-06T08:28:50.130Z,20.30
2018-12-06T08:31:16.507Z,20.30
2018-12-06T08:33:42.733Z,20.40
2018-12-06T08:36:08.950Z,20.40
2018-12-06T08:38:35.138Z,20.40
2018-12-06T08:41:01.344Z,20.40
2018-12-06T08:43:27.559Z,20.40
2018-12-06T08:45:53.761Z,20.40
2018-12-06T08:48:19.978Z,20.40
2018-12-06T08:50:46.489Z,20.40
2018-12-06T08:53:12.692Z,20.40
2018-12-06T08:55:38.905Z,20.40
2018-12-06T08:58:05.122Z,20.40
2018-12-06T09:00:31.429Z,20.40
2018-12-06T09:02:57.626Z,20.40
2018-12-06T09:05:24.245Z,20.40
2018-12-06T09:07:50.811Z,20.30
2018-12-06T09:10:17.006Z,20.40
2018-12-06T09:12:43.315Z,20.40
2018-12-06T09:15:09.939Z,20.30
2018-12-06T09:17:36.748Z,20.40
2018-12-06T09:20:03.250Z,20.40
2018-12-06T09:22:29.688Z,20.40
2018-12-06T09:24:55.894Z,20.40
2018-12-06T09:27:22.121Z,20.40
2018-12-06T09:29:48.529Z,20.40
2018-12-06T09:32:14.754Z,20.50
2018-12-06T09:34:41.271Z,20.50
2018-12-06T09:37:07.466Z,20.40
2018-12-06T09:39:33.693Z,20.40
2018-12-06T09:41:59.972Z,20.50
2018-12-06T09:44:26.170Z,20.40
2018-12-06T09:46:53.165Z,20.50
2018-12-06T09:49:19.459Z,20.50
2018-12-06T09:51:46.324Z,20.50
2018-12-06T09:54:13.126Z,20.50
2018-12-06T09:56:39.373Z,20.50
2018-12-06T09:59:05.570Z,20.50
2018-12-06T10:01:31.805Z,20.50
2018-12-06T10:03:58.068Z,20.40
2018-12-06T10:06:24.373Z,20.40
2018-12-06T10:08:50.636Z,20.50
2018-12-06T10:11:16.869Z,20.40
2018-12-06T10:13:43.075Z,20.40
2018-12-06T10:16:09.523Z,20.50
2018-12-06T10:18:35.745Z,20.40
2018-12-06T10:21:02.737Z,20.50
2018-12-06T10:23:29.140Z,20.50
2018-12-06T10:25:55.578Z,20.50
2018-12-06T10:28:22.546Z,20.50
2018-12-06T10:30:48.776Z,20.50
2018-12-06T10:33:14.994Z,20.50
2018-12-06T10:35:41.231Z,20.50
2018-12-06T10:38:07.464Z,20.50
2018-12-06T10:40:33.684Z,20.50
2018-12-06T10:42:59.941Z,20.50
2018-12-06T10:45:26.155Z,20.50
2018-12-06T10:47:52.608Z,20.40
2018-12-06T10:50:18.858Z,20.50
2018-12-06T10:52:45.104Z,20.40
2018-12-06T10:55:11.622Z,20.50
2018-12-06T10:57:37.899Z,20.60
2018-12-06T11:00:04.501Z,20.50
2018-12-06T11:02:30.766Z,20.60
2018-12-06T11:04:57.776Z,20.60
2018-12-06T11:07:23.990Z,20.60
2018-12-06T11:09:50.401Z,20.60
2018-12-06T11:12:16.641Z,20.60
2018-12-06T11:14:42.843Z,20.60
2018-12-06T11:17:09.097Z,20.60
2018-12-06T11:19:35.292Z,20.60
2018-12-06T11:22:01.482Z,20.60
2018-12-06T11:24:27.678Z,20.60
2018-12-06T11:26:53.878Z,20.60
2018-12-06T11:29:20.096Z,20.60
2018-12-06T11:31:46.320Z,20.60
2018-12-06T11:34:12.511Z,20.60
2018-12-06T11:36:38.772Z,20.60
2018-12-06T11:39:05.383Z,20.60
2018-12-06T11:41:31.705Z,20.60
2018-12-06T11:43:58.584Z,20.60
2018-12-06T11:46:24.804Z,20.60
2018-12-06T11:48:51.141Z,20.70
2018-12-06T11:51:17.329Z,20.70
2018-12-06T11:53:43.738Z,20.70
2018-12-06T11:56:10.152Z,20.70
2018-12-06T11:58:36.379Z,20.70
2018-12-06T12:01:03.031Z,20.70
2018-12-06T12:03:29.286Z,20.70
2018-12-06T12:05:58.636Z,20.70
2018-12-06T12:08:24.140Z,20.60
2018-12-06T12:10:50.364Z,20.60
2018-12-06T12:13:16.570Z,20.70
2018-12-06T12:15:42.790Z,20.60
2018-12-06T12:18:09.656Z,20.60
2018-12-06T12:20:36.082Z,20.60
2018-12-06T12:23:02.314Z,20.60
2018-12-06T12:25:28.509Z,20.70
2018-12-06T12:27:55.052Z,20.70
2018-12-06T12:30:21.265Z,20.70
2018-12-06T12:32:47.662Z,20.70
2018-12-06T12:35:14.104Z,20.70
2018-12-06T12:37:40.297Z,20.70
2018-12-06T12:40:06.491Z,20.70
2018-12-06T12:42:32.808Z,20.70
2018-12-06T12:44:59.025Z,20.70
2018-12-06T12:47:25.226Z,20.70
2018-12-06T12:49:51.431Z,20.70
2018-12-06T12:52:17.645Z,20.80
2018-12-06T12:54:43.860Z,20.80
2018-12-06T12:57:10.523Z,20.80
2018-12-06T12:59:37.268Z,20.80
2018-12-06T13:02:04.217Z,20.80
2018-12-06T13:04:30.763Z,20.80
2018-12-06T13:06:58.122Z,20.80
2018-12-06T13:09:25.487Z,20.80
2018-12-06T13:11:52.801Z,20.80
2018-12-06T13:14:19.485Z,20.80
2018-12-06T13:16:46.231Z,20.80
2018-12-06T13:19:12.987Z,20.80
2018-12-06T13:21:39.418Z,20.80
2018-12-06T13:24:06.471Z,20.90
2018-12-06T13:26:33.402Z,20.90
2018-12-06T13:28:59.964Z,20.90
2018-12-06T13:31:27.327Z,20.90
2018-12-06T13:33:54.085Z,20.90
2018-12-06T13:36:20.510Z,21.00
2018-12-06T13:38:46.736Z,20.90
2018-12-06T13:41:13.085Z,20.90
2018-12-06T13:43:39.304Z,20.90
2018-12-06T13:46:05.803Z,21.00
2018-12-06T13:48:32.711Z,21.00
2018-12-06T13:50:58.906Z,21.00
2018-12-06T13:53:25.125Z,21.00
2018-12-06T13:55:51.387Z,21.00
2018-12-06T13:58:17.581Z,20.90
2018-12-06T14:00:44.079Z,20.90
2018-12-06T14:03:10.735Z,21.00
2018-12-06T14:05:37.171Z,21.00
2018-12-06T14:08:03.388Z,21.00
2018-12-06T14:10:29.614Z,21.00
2018-12-06T14:12:55.838Z,21.00
2018-12-06T14:15:22.053Z,21.00
2018-12-06T14:17:48.448Z,21.00
2018-12-06T14:20:14.706Z,21.00
2018-12-06T14:22:40.933Z,20.90
2018-12-06T14:25:07.147Z,20.90
2018-12-06T14:27:33.339Z,20.90
2018-12-06T14:29:59.554Z,20.90
2018-12-06T14:32:25.773Z,20.90
2018-12-06T14:34:51.990Z,21.00
2018-12-06T14:37:18.176Z,20.90
2018-12-06T14:39:44.388Z,21.00
2018-12-06T14:42:10.612Z,21.00
2018-12-06T14:44:36.827Z,21.00
2018-12-06T14:47:03.062Z,20.90
2018-12-06T14:49:29.252Z,20.90
2018-12-06T14:51:56.165Z,20.90
2018-12-06T14:54:22.960Z,20.90
2018-12-06T14:56:49.944Z,20.90
2018-12-06T14:59:16.997Z,20.90
2018-12-06T15:01:43.668Z,21.00
2018-12-06T15:04:10.321Z,20.90
2018-12-06T15:06:37.681Z,20.90
2018-12-06T15:09:04.373Z,20.90
2018-12-06T15:11:30.619Z,20.90
2018-12-06T15:13:56.817Z,20.90
2018-12-06T15:16:23.748Z,20.90
2018-12-06T15:18:49.959Z,20.70
2018-12-06T15:21:16.178Z,20.80
2018-12-06T15:23:42.378Z,20.90
2018-12-06T15:26:08.602Z,20.90
2018-12-06T15:28:34.806Z,21.00
2018-12-06T15:31:01.042Z,21.00
2018-12-06T15:33:27.243Z,20.90
2018-12-06T15:35:53.725Z,21.00
2018-12-06T15:38:20.032Z,21.00
2018-12-06T15:40:46.249Z,21.00
2018-12-06T15:43:12.915Z,21.00
2018-12-06T15:45:39.128Z,21.00
2018-12-06T15:48:05.784Z,21.00
2018-12-06T15:50:31.981Z,21.00
2018-12-06T15:52:58.353Z,21.00
2018-12-06T15:55:24.553Z,21.00
2018-12-06T15:57:51.071Z,21.10
2018-12-06T16:00:17.285Z,21.10
2018-12-06T16:02:43.486Z,21.10
2018-12-06T16:05:09.770Z,21.10
2018-12-06T16:07:36.380Z,21.10
2018-12-06T16:10:02.652Z,21.10
2018-12-06T16:12:28.858Z,21.00
2018-12-06T16:14:55.053Z,21.00
2018-12-06T16:17:21.269Z,21.00
2018-12-06T16:19:47.500Z,21.10
2018-12-06T16:22:13.734Z,21.10
2018-12-06T16:24:40.584Z,21.10
2018-12-06T16:27:06.810Z,21.10
2018-12-06T16:29:33.688Z,21.10
2018-12-06T16:31:59.989Z,21.10
2018-12-06T16:34:26.315Z,21.10
2018-12-06T16:36:53.658Z,21.10
2018-12-06T16:39:19.858Z,21.10
2018-12-06T16:41:46.139Z,21.10
2018-12-06T16:44:12.343Z,21.10
2018-12-06T16:46:38.543Z,21.10
2018-12-06T16:49:10.133Z,21.10
2018-12-06T16:51:33.792Z,21.10
2018-12-06T16:54:00.878Z,21.10
2018-12-06T16:56:27.078Z,21.10
2018-12-06T16:58:53.446Z,21.10
2018-12-06T17:01:19.894Z,21.00
2018-12-06T17:03:46.094Z,21.00
2018-12-06T17:06:12.289Z,21.10
2018-12-06T17:08:39.157Z,21.10
2018-12-06T17:11:05.778Z,21.10
2018-12-06T17:13:31.975Z,21.00
2018-12-06T17:15:58.358Z,21.00
2018-12-06T17:18:24.641Z,21.00
2018-12-06T17:20:51.647Z,21.00
2018-12-06T17:23:17.929Z,21.00
2018-12-06T17:25:44.140Z,21.10
2018-12-06T17:28:10.365Z,21.10
2018-12-06T17:30:37.693Z,21.10
2018-12-06T17:33:04.098Z,21.10
2018-12-06T17:35:30.302Z,21.10
2018-12-06T17:37:56.497Z,21.10
2018-12-06T17:40:22.921Z,21.10
2018-12-06T17:42:49.654Z,21.10
2018-12-06T17:45:16.544Z,21.10
2018-12-06T17:47:43.161Z,21.10
2018-12-06T17:50:09.364Z,21.10
2018-12-06T17:52:35.606Z,21.10
2018-12-06T17:55:02.588Z,21.00
2018-12-06T17:57:28.790Z,21.00
2018-12-06T17:59:55.186Z,21.00
2018-12-06T18:02:21.398Z,21.10
2018-12-06T18:04:47.782Z,21.10
2018-12-06T18:07:14.019Z,21.10
2018-12-06T18:09:42.038Z,21.10
2018-12-06T18:12:08.320Z,21.20
2018-12-06T18:14:34.940Z,21.20
2018-12-06T18:17:01.346Z,21.10
2018-12-06T18:19:27.570Z,21.10
2018-12-06T18:21:53.765Z,21.10
2018-12-06T18:24:20.726Z,21.10
2018-12-06T18:26:46.926Z,21.10
2018-12-06T18:29:13.345Z,21.10
2018-12-06T18:31:39.593Z,21.10
2018-12-06T18:34:05.837Z,21.10
2018-12-06T18:36:32.052Z,21.10
2018-12-06T18:38:58.275Z,21.10
2018-12-06T18:41:24.488Z,21.00
2018-12-06T18:43:50.709Z,21.00
2018-12-06T18:46:16.920Z,21.00
2018-12-06T18:48:43.156Z,21.20
2018-12-06T18:51:09.456Z,21.20
2018-12-06T18:53:35.713Z,21.20
2018-12-06T18:56:01.943Z,21.20
2018-12-06T18:58:34.301Z,21.20
2018-12-06T19:00:57.736Z,21.30
2018-12-06T19:03:24.132Z,21.20
2018-12-06T19:05:51.306Z,21.20
2018-12-06T19:08:17.523Z,21.30
2018-12-06T19:10:43.718Z,21.20
2018-12-06T19:13:09.937Z,21.20
2018-12-06T19:15:36.139Z,21.10
2018-12-06T19:18:02.593Z,21.10
2018-12-06T19:20:28.880Z,21.10
2018-12-06T19:22:55.078Z,21.00
2018-12-06T19:25:21.320Z,21.00
2018-12-06T19:27:47.530Z,21.00
2018-12-06T19:30:13.770Z,21.20
2018-12-06T19:32:40.711Z,21.20
2018-12-06T19:35:06.959Z,21.10
2018-12-06T19:37:33.963Z,21.10
2018-12-06T19:40:00.392Z,21.10
2018-12-06T19:42:26.590Z,21.10
2018-12-06T19:44:52.970Z,21.10
2018-12-06T19:47:19.184Z,21.10
2018-12-06T19:49:45.400Z,21.10
2018-12-06T19:52:11.669Z,21.10
2018-12-06T19:54:37.881Z,21.10
2018-12-06T19:57:04.176Z,21.10
2018-12-06T19:59:30.692Z,21.10
2018-12-06T20:01:56.905Z,21.10
2018-12-06T20:04:23.134Z,21.10
2018-12-06T20:06:49.351Z,21.10
2018-12-06T20:09:15.597Z,21.10
2018-12-06T20:11:41.831Z,21.10
2018-12-06T20:14:08.037Z,21.10
2018-12-06T20:16:34.252Z,21.10
2018-12-06T20:19:00.458Z,21.10
2018-12-06T20:21:26.979Z,21.10
2018-12-06T20:23:53.166Z,21.10
2018-12-06T20:26:19.375Z,21.10
2018-12-06T20:28:45.813Z,21.10
2018-12-06T20:31:12.036Z,21.10
2018-12-06T20:33:38.254Z,21.10
2018-12-06T20:36:04.469Z,21.10
2018-12-06T20:38:30.786Z,21.10
2018-12-06T20:40:56.977Z,21.20
2018-12-06T20:43:23.688Z,21.20
2018-12-06T20:45:50.529Z,21.20
2018-12-06T20:48:16.751Z,21.20
2018-12-06T20:50:49.216Z,21.30
2018-12-06T20:53:11.206Z,21.30
2018-12-06T20:55:37.437Z,21.30
2018-12-06T20:58:03.690Z,21.30
2018-12-06T21:00:30.134Z,21.30
2018-12-06T21:02:56.334Z,21.30
2018-12-06T21:05:22.576Z,21.30
2018-12-06T21:07:48.838Z,21.30
2018-12-06T21:10:15.072Z,21.30
2018-12-06T21:12:41.717Z,21.40
2018-12-06T21:15:08.153Z,21.40
2018-12-06T21:17:34.597Z,21.50
2018-12-06T21:20:00.785Z,21.40
2018-12-06T21:22:27.167Z,21.50
2018-12-06T21:24:53.361Z,21.40
2018-12-06T21:27:19.578Z,21.40
2018-12-06T21:29:46.179Z,21.40
2018-12-06T21:32:12.908Z,21.30
2018-12-06T21:34:39.111Z,21.40
2018-12-06T21:37:05.493Z,21.50
2018-12-06T21:39:31.708Z,21.50
2018-12-06T21:41:58.131Z,21.50
2018-12-06T21:44:24.353Z,21.50
2018-12-06T21:46:50.546Z,21.50
2018-12-06T21:49:16.766Z,21.50
2018-12-06T21:51:42.981Z,21.40
2018-12-06T21:54:09.864Z,21.40
2018-12-06T21:56:36.517Z,21.40
2018-12-06T21:59:02.839Z,21.40
2018-12-06T22:01:29.052Z,21.00
2018-12-06T22:03:55.265Z,21.10
2018-12-06T22:06:21.463Z,21.00
2018-12-06T22:08:47.832Z,20.60
2018-12-06T22:11:14.154Z,20.40
2018-12-06T22:13:40.406Z,20.40
2018-12-06T22:16:06.657Z,20.20
2018-12-06T22:18:32.951Z,20.00
2018-12-06T22:20:59.150Z,20.10
2018-12-06T22:23:25.342Z,20.20
2018-12-06T22:25:51.568Z,20.20
2018-12-06T22:28:18.598Z,20.20
2018-12-06T22:30:45.091Z,20.30
2018-12-06T22:33:11.312Z,20.30
2018-12-06T22:35:37.525Z,20.30
2018-12-06T22:38:03.768Z,20.30
2018-12-06T22:40:30.605Z,20.20
2018-12-06T22:42:56.838Z,20.20
2018-12-06T22:45:23.174Z,20.20
2018-12-06T22:47:49.413Z,20.20
2018-12-06T22:50:15.601Z,20.20
2018-12-06T22:52:41.877Z,20.20
2018-12-06T22:55:08.077Z,20.20
2018-12-06T22:57:34.297Z,20.20
2018-12-06T23:00:00.582Z,20.10
2018-12-06T23:02:26.808Z,20.10
2018-12-06T23:04:53.018Z,20.10
2018-12-06T23:07:19.249Z,20.10
2018-12-06T23:09:45.747Z,20.10
2018-12-06T23:12:11.973Z,20.10
2018-12-06T23:14:38.192Z,20.10
2018-12-06T23:17:04.606Z,20.00
2018-12-06T23:19:30.848Z,20.00
2018-12-06T23:21:57.081Z,20.00
